createdAt,value
2023-05-05T00:01:43.442Z,3.90
2023-05-05T00:04:11.198Z,4.20
2023-05-05T00:06:38.682Z,4.00
2023-05-05T00:09:06.829Z,4.00
2023-05-05T00:11:34.525Z,4.47
2023-05-05T00:14:01.933Z,4.00
2023-05-05T00:16:29.474Z,4.10
2023-05-05T00:18:57.830Z,3.70
2023-05-05T00:21:25.334Z,4.32
2023-05-05T00:23:52.724Z,3.95
2023-05-05T00:26:21.242Z,3.95
2023-05-05T00:28:49.340Z,3.90
2023-05-05T00:31:16.923Z,4.03
2023-05-05T00:33:44.680Z,4.00
2023-05-05T00:36:12.306Z,3.83
2023-05-05T00:38:39.709Z,4.00
2023-05-05T00:41:07.621Z,3.95
2023-05-05T00:43:35.085Z,4.05
2023-05-05T00:46:06.560Z,3.85
2023-05-05T00:48:34.649Z,3.64
2023-05-05T00:51:02.334Z,3.75
2023-05-05T00:53:29.976Z,4.07
2023-05-05T00:55:58.051Z,4.40
2023-05-05T00:58:25.474Z,4.32
2023-05-05T01:00:53.177Z,4.40
2023-05-05T01:03:21.056Z,4.30
2023-05-05T01:06:15.618Z,4.50
2023-05-05T01:09:09.423Z,4.40
2023-05-05T01:12:02.369Z,4.40
2023-05-05T01:14:42.116Z,3.60
2023-05-05T01:17:17.353Z,4.15
2023-05-05T01:20:26.570Z,4.18
2023-05-05T01:23:00.558Z,4.25
2023-05-05T01:25:43.320Z,3.90
2023-05-05T01:28:24.430Z,3.73
2023-05-05T01:31:13.790Z,4.18
2023-05-05T01:33:46.416Z,4.00
2023-05-05T01:36:22.931Z,4.55
2023-05-05T01:38:57.223Z,4.32
2023-05-05T01:41:28.702Z,4.16
2023-05-05T01:43:57.349Z,4.12
2023-05-05T01:46:25.653Z,4.45
2023-05-05T01:48:54.036Z,4.40
2023-05-05T01:51:23.569Z,4.28
2023-05-05T01:53:57.579Z,4.55
2023-05-05T01:56:25.381Z,4.43
2023-05-05T01:58:54.125Z,4.40
2023-05-05T02:01:27.020Z,4.62
2023-05-05T02:03:59.087Z,4.57
2023-05-05T02:06:28.302Z,4.62
2023-05-05T02:08:58.400Z,4.50
2023-05-05T02:11:26.981Z,4.75
2023-05-05T02:13:54.717Z,4.78
2023-05-05T02:16:22.911Z,4.95
2023-05-05T02:18:50.744Z,4.80
2023-05-05T02:21:18.377Z,4.72
2023-05-05T02:23:51.550Z,4.50
2023-05-05T02:26:21.674Z,5.05
2023-05-05T02:29:07.574Z,4.65
2023-05-05T02:31:39.819Z,4.43
2023-05-05T02:34:08.218Z,4.70
2023-05-05T02:36:38.361Z,4.78
2023-05-05T02:39:18.159Z,4.78
2023-05-05T02:41:47.482Z,4.78
2023-05-05T02:44:17.137Z,5.30
2023-05-05T02:46:45.255Z,4.97
2023-05-05T02:49:12.915Z,5.10
2023-05-05T02:51:40.541Z,5.55
2023-05-05T02:54:09.014Z,5.45
2023-05-05T02:56:40.963Z,5.53
2023-05-05T02:59:31.932Z,5.28
2023-05-05T03:02:16.475Z,5.10
2023-05-05T03:05:06.620Z,5.15
2023-05-05T03:07:41.081Z,5.80
2023-05-05T03:10:10.940Z,5.10
2023-05-05T03:12:51.675Z,5.50
2023-05-05T03:15:23.063Z,5.72
2023-05-05T03:17:53.533Z,5.25
2023-05-05T03:20:22.665Z,5.60
2023-05-05T03:22:50.883Z,5.30
2023-05-05T03:25:18.659Z,5.43
2023-05-05T03:27:46.276Z,5.40
2023-05-05T03:30:15.258Z,5.40
2023-05-05T03:32:44.470Z,5.57
2023-05-05T03:35:12.100Z,5.20
2023-05-05T03:37:39.740Z,5.32
2023-05-05T03:40:08.208Z,5.18
2023-05-05T03:42:35.876Z,5.25
2023-05-05T03:45:03.488Z,5.28
2023-05-05T03:47:31.363Z,5.10
2023-05-05T03:50:00.704Z,5.12
2023-05-05T03:52:28.540Z,5.10
2023-05-05T03:54:56.336Z,5.07
2023-05-05T03:57:23.825Z,5.70
2023-05-05T03:59:51.309Z,5.85
2023-05-05T04:02:19.269Z,6.20
2023-05-05T04:04:47.123Z,5.82
2023-05-05T04:07:15.078Z,5.72
2023-05-05T04:09:44.713Z,5.87
2023-05-05T04:12:12.569Z,5.72
2023-05-05T04:14:40.455Z,6.47
2023-05-05T04:17:08.637Z,6.05
2023-05-05T04:19:36.604Z,5.87
2023-05-05T04:22:04.260Z,5.70
2023-05-05T04:24:31.793Z,5.57
2023-05-05T04:27:00.372Z,5.50
2023-05-05T04:29:28.898Z,5.73
2023-05-05T04:31:56.875Z,5.50
2023-05-05T04:34:24.808Z,5.15
2023-05-05T04:36:52.567Z,5.60
2023-05-05T04:39:20.378Z,5.03
2023-05-05T04:41:48.263Z,5.40
2023-05-05T04:44:15.907Z,5.43
2023-05-05T04:46:43.579Z,5.50
2023-05-05T04:49:11.357Z,5.85
2023-05-05T04:51:42.191Z,5.50
2023-05-05T04:54:09.650Z,5.43
2023-05-05T04:56:37.686Z,5.10
2023-05-05T04:59:05.195Z,4.70
2023-05-05T05:01:32.625Z,5.33
2023-05-05T05:04:00.537Z,5.45
2023-05-05T05:06:29.337Z,5.45
2023-05-05T05:08:57.131Z,5.37
2023-05-05T05:11:24.917Z,5.32
2023-05-05T05:13:53.106Z,5.50
2023-05-05T05:16:21.646Z,5.20
2023-05-05T05:18:49.432Z,4.97
2023-05-05T05:21:17.529Z,5.05
2023-05-05T05:23:45.023Z,5.25
2023-05-05T05:26:12.991Z,5.20
2023-05-05T05:28:41.676Z,5.30
2023-05-05T05:31:09.451Z,5.22
2023-05-05T05:33:37.275Z,5.07
2023-05-05T05:36:05.206Z,5.28
2023-05-05T05:38:32.672Z,5.10
2023-05-05T05:41:05.392Z,4.47
2023-05-05T05:43:33.786Z,4.90
2023-05-05T05:46:01.699Z,4.70
2023-05-05T05:48:29.673Z,4.50
2023-05-05T05:50:57.312Z,4.60
2023-05-05T05:53:25.333Z,4.20
2023-05-05T05:55:53.319Z,4.32
2023-05-05T05:58:20.889Z,4.43
2023-05-05T06:00:49.201Z,4.32
2023-05-05T06:03:17.332Z,4.30
2023-05-05T06:05:46.299Z,4.40
2023-05-05T06:08:14.289Z,4.50
2023-05-05T06:10:42.496Z,4.35
2023-05-05T06:13:10.649Z,4.10
2023-05-05T06:15:38.891Z,4.53
2023-05-05T06:18:06.908Z,4.40
2023-05-05T06:20:34.339Z,4.22
2023-05-05T06:23:01.819Z,4.30
2023-05-05T06:25:31.026Z,4.22
2023-05-05T06:27:58.696Z,4.12
2023-05-05T06:30:29.026Z,4.23
2023-05-05T06:32:57.005Z,4.60
2023-05-05T06:35:24.788Z,4.72
2023-05-05T06:37:52.163Z,4.57
2023-05-05T06:40:20.098Z,4.60
2023-05-05T06:42:47.673Z,4.43
2023-05-05T06:45:16.011Z,4.68
2023-05-05T06:47:44.819Z,4.90
2023-05-05T06:50:12.652Z,4.63
2023-05-05T06:52:40.032Z,4.77
2023-05-05T06:55:08.050Z,4.70
2023-05-05T06:57:35.815Z,4.80
2023-05-05T07:00:05.998Z,4.37
2023-05-05T07:02:34.020Z,4.30
2023-05-05T07:05:01.582Z,4.10
2023-05-05T07:07:31.757Z,4.82
2023-05-05T07:09:59.613Z,4.32
2023-05-05T07:12:29.449Z,3.92
2023-05-05T07:14:57.310Z,4.18
2023-05-05T07:17:25.542Z,4.50
2023-05-05T07:19:54.998Z,4.05
2023-05-05T07:22:22.630Z,4.18
2023-05-05T07:24:51.771Z,4.00
2023-05-05T07:27:20.473Z,4.40
2023-05-05T07:29:48.019Z,3.87
2023-05-05T07:32:15.727Z,4.35
2023-05-05T07:34:43.226Z,4.28
2023-05-05T07:37:10.931Z,4.10
2023-05-05T07:39:38.657Z,4.07
2023-05-05T07:42:07.407Z,4.22
2023-05-05T07:44:34.890Z,4.50
2023-05-05T07:47:02.606Z,4.18
2023-05-05T07:49:30.028Z,3.80
2023-05-05T07:51:57.456Z,3.67
2023-05-05T07:54:25.081Z,4.10
2023-05-05T07:56:52.671Z,3.83
2023-05-05T07:59:20.238Z,4.60
2023-05-05T08:01:47.913Z,4.10
2023-05-05T08:04:15.707Z,4.10
2023-05-05T08:06:43.222Z,3.72
2023-05-05T08:09:10.946Z,3.42
2023-05-05T08:11:39.280Z,3.92
2023-05-05T08:14:07.722Z,3.75
2023-05-05T08:16:35.394Z,4.30
2023-05-05T08:19:06.219Z,4.47
2023-05-05T08:21:37.338Z,4.12
2023-05-05T08:24:05.158Z,4.35
2023-05-05T08:26:32.557Z,3.65
2023-05-05T08:29:01.175Z,4.10
2023-05-05T08:31:33.177Z,3.92
2023-05-05T08:34:00.669Z,4.75
2023-05-05T08:36:29.036Z,4.35
2023-05-05T17:23:10.713Z,2.28
2023-05-05T17:25:38.306Z,2.80
